createdAt,value
2022-12-08T00:00:35.724Z,89.17
2022-12-08T00:03:06.071Z,89.32
2022-12-08T00:05:53.893Z,89.24
2022-12-08T00:08:42.396Z,89.65
2022-12-08T00:11:16.506Z,89.77
2022-12-08T00:13:46.597Z,89.80
2022-12-08T00:16:16.559Z,90.04
2022-12-08T00:18:46.365Z,90.26
2022-12-08T00:21:16.082Z,90.42
2022-12-08T00:23:45.809Z,90.68
2022-12-08T00:26:15.740Z,90.37
2022-12-08T00:28:45.631Z,90.39
2022-12-08T00:31:15.733Z,91.24
2022-12-08T00:33:45.860Z,91.28
2022-12-08T00:36:17.120Z,91.28
2022-12-08T00:38:49.078Z,90.65
2022-12-08T00:41:41.535Z,90.85
2022-12-08T00:44:13.857Z,91.14
2022-12-08T00:46:44.512Z,91.93
2022-12-08T00:49:14.706Z,91.52
2022-12-08T00:51:45.501Z,91.62
2022-12-08T00:54:15.568Z,91.98
2022-12-08T00:56:45.632Z,92.32
2022-12-08T00:59:15.475Z,92.33
2022-12-08T01:01:47.777Z,91.44
2022-12-08T01:04:21.336Z,91.49
2022-12-08T01:06:55.145Z,92.06
2022-12-08T01:09:26.417Z,92.31
2022-12-08T01:11:58.154Z,91.90
2022-12-08T01:14:29.551Z,91.83
2022-12-08T01:17:00.182Z,92.00
2022-12-08T01:19:32.255Z,92.37
2022-12-08T01:22:02.319Z,92.43
2022-12-08T01:24:32.935Z,92.64
2022-12-08T01:27:03.175Z,92.48
2022-12-08T01:29:33.931Z,92.60
2022-12-08T01:32:04.307Z,92.92
2022-12-08T01:34:34.879Z,93.33
2022-12-08T01:37:05.293Z,93.34
2022-12-08T01:39:36.765Z,93.25
2022-12-08T01:42:20.378Z,93.01
2022-12-08T01:45:06.172Z,93.37
2022-12-08T01:47:50.732Z,93.29
2022-12-08T01:50:22.665Z,93.10
2022-12-08T01:52:59.863Z,92.86
2022-12-08T01:55:37.547Z,93.00
2022-12-08T01:58:29.450Z,93.00
2022-12-08T02:01:00.471Z,92.45
2022-12-08T02:03:39.583Z,93.13
2022-12-08T02:06:11.509Z,93.10
2022-12-08T02:08:43.470Z,93.37
2022-12-08T02:11:14.874Z,93.23
2022-12-08T02:13:47.696Z,92.73
2022-12-08T02:16:23.274Z,92.21
2022-12-08T02:19:22.056Z,92.58
2022-12-08T02:22:04.245Z,92.22
2022-12-08T02:24:43.811Z,92.34
2022-12-08T02:27:41.338Z,92.79
2022-12-08T02:30:29.991Z,92.74
2022-12-08T02:33:42.492Z,92.77
2022-12-08T02:36:27.417Z,92.80
2022-12-08T02:39:20.950Z,92.71
2022-12-08T02:41:58.367Z,92.42
2022-12-08T02:44:58.755Z,91.93
2022-12-08T02:47:31.083Z,91.92
2022-12-08T02:50:02.058Z,92.43
2022-12-08T02:52:33.118Z,92.38
2022-12-08T02:55:11.628Z,92.45
2022-12-08T02:58:23.695Z,91.83
2022-12-08T03:01:19.520Z,91.79
2022-12-08T03:04:04.176Z,91.63
2022-12-08T03:06:58.077Z,91.61
2022-12-08T03:09:44.718Z,91.81
2022-12-08T03:12:15.409Z,91.32
2022-12-08T03:14:52.005Z,90.52
2022-12-08T03:17:27.123Z,89.67
2022-12-08T03:19:59.624Z,89.66
2022-12-08T03:22:31.154Z,90.87
2022-12-08T03:25:02.133Z,90.58
2022-12-08T03:27:34.667Z,89.66
2022-12-08T03:30:06.447Z,89.96
2022-12-08T03:33:12.046Z,89.32
2022-12-08T03:35:43.239Z,89.93
2022-12-08T03:38:16.691Z,90.22
2022-12-08T03:41:07.414Z,89.86
2022-12-08T03:43:38.613Z,90.03
2022-12-08T03:46:08.709Z,89.47
2022-12-08T03:48:39.210Z,88.94
2022-12-08T03:51:09.501Z,88.89
2022-12-08T03:53:41.042Z,85.89
2022-12-08T03:56:30.196Z,86.00
2022-12-08T03:59:01.694Z,84.88
2022-12-08T04:01:35.695Z,84.15
2022-12-08T04:04:05.805Z,83.36
2022-12-08T04:06:35.784Z,83.24
2022-12-08T04:09:06.573Z,84.17
2022-12-08T04:11:37.341Z,83.97
2022-12-08T04:14:07.855Z,84.55
2022-12-08T04:16:38.406Z,85.20
2022-12-08T04:19:09.657Z,84.01
2022-12-08T04:21:40.373Z,83.72
2022-12-08T04:24:11.909Z,83.45
2022-12-08T04:26:42.034Z,83.39
2022-12-08T04:29:12.768Z,83.35
2022-12-08T04:31:43.485Z,83.15
2022-12-08T04:34:14.367Z,82.97
2022-12-08T04:36:44.708Z,82.41
2022-12-08T04:39:14.748Z,82.47
2022-12-08T04:41:44.864Z,82.31
2022-12-08T04:44:15.801Z,82.26
2022-12-08T04:46:46.253Z,82.15
2022-12-08T04:49:16.817Z,81.66
2022-12-08T04:51:46.847Z,81.15
2022-12-08T04:54:17.409Z,80.93
2022-12-08T04:56:47.820Z,80.59
2022-12-08T04:59:18.063Z,80.06
2022-12-08T05:01:48.688Z,79.32
2022-12-08T05:04:18.915Z,78.62
2022-12-08T05:06:48.690Z,77.31
2022-12-08T05:09:20.165Z,77.46
2022-12-08T05:11:50.727Z,76.63
2022-12-08T05:14:22.031Z,75.75
2022-12-08T05:16:52.186Z,75.59
2022-12-08T05:19:23.124Z,75.52
2022-12-08T05:21:53.747Z,75.47
2022-12-08T05:24:24.403Z,75.66
2022-12-08T05:26:55.339Z,75.09
2022-12-08T05:29:26.246Z,74.49
2022-12-08T05:31:56.561Z,74.94
2022-12-08T05:34:27.046Z,71.93
2022-12-08T05:36:58.019Z,71.32
2022-12-08T05:39:28.651Z,70.68
2022-12-08T05:41:59.816Z,69.08
2022-12-08T05:44:30.703Z,65.48
2022-12-08T05:47:01.901Z,64.03
2022-12-08T05:49:32.253Z,63.77
2022-12-08T05:52:02.646Z,63.62
2022-12-08T05:54:33.035Z,62.21
2022-12-08T05:57:03.707Z,61.48
2022-12-08T05:59:33.907Z,60.30
2022-12-08T06:02:04.514Z,60.80
2022-12-08T06:04:34.986Z,60.34
2022-12-08T06:07:06.189Z,59.03
2022-12-08T06:09:36.789Z,57.12
2022-12-08T06:12:07.246Z,57.65
2022-12-08T06:14:36.490Z,58.35
2022-12-08T06:17:05.335Z,56.21
2022-12-08T06:19:34.601Z,54.86
2022-12-08T06:22:04.337Z,54.91
2022-12-08T06:24:33.198Z,55.84
2022-12-08T06:27:02.546Z,54.66
2022-12-08T06:29:31.852Z,55.19
2022-12-08T06:32:01.195Z,53.91
2022-12-08T06:34:30.501Z,53.18
2022-12-08T06:37:00.025Z,53.31
2022-12-08T06:39:29.270Z,54.02
2022-12-08T06:42:16.910Z,54.33
2022-12-08T06:44:46.361Z,53.78
2022-12-08T06:47:15.625Z,53.74
2022-12-08T06:49:44.681Z,54.56
2022-12-08T06:52:13.568Z,54.52
2022-12-08T06:54:42.468Z,52.83
2022-12-08T06:57:11.708Z,53.01
2022-12-08T06:59:41.188Z,53.62
2022-12-08T07:02:11.107Z,54.42
2022-12-08T07:04:40.103Z,52.99
2022-12-08T07:07:09.888Z,51.27
2022-12-08T07:09:38.716Z,51.91
2022-12-08T07:12:07.911Z,52.87
2022-12-08T07:14:37.204Z,53.54
2022-12-08T07:17:06.658Z,53.51
2022-12-08T07:19:35.455Z,53.47
2022-12-08T07:22:04.891Z,53.62
2022-12-08T07:24:34.230Z,53.41
2022-12-08T07:27:03.809Z,52.63
2022-12-08T07:32:01.963Z,52.71
2022-12-08T07:34:30.806Z,52.33
2022-12-08T07:37:00.164Z,51.79
2022-12-08T07:39:29.508Z,51.27
2022-12-08T07:41:58.688Z,50.80
2022-12-08T07:44:28.682Z,50.76
2022-12-08T07:46:58.051Z,49.38
2022-12-08T07:49:27.122Z,48.70
2022-12-08T07:51:56.079Z,48.19
2022-12-08T07:54:25.374Z,46.67
2022-12-08T07:56:54.214Z,46.37
2022-12-08T07:59:23.128Z,46.81
2022-12-08T08:02:13.169Z,47.79
2022-12-08T08:04:41.635Z,46.30
2022-12-08T08:07:11.010Z,46.33
2022-12-08T08:09:39.936Z,46.65
2022-12-08T08:12:30.269Z,47.57
2022-12-08T08:15:04.496Z,47.52
2022-12-08T08:17:34.027Z,46.44
2022-12-08T08:20:04.416Z,47.06
2022-12-08T08:22:35.240Z,46.76
2022-12-08T08:25:04.939Z,48.02
2022-12-08T08:27:33.865Z,46.70
2022-12-08T08:30:05.869Z,46.99
2022-12-08T08:32:35.965Z,47.96
2022-12-08T08:35:05.732Z,47.97
2022-12-08T08:37:34.681Z,48.15
2022-12-08T08:40:03.979Z,47.95
2022-12-08T08:42:33.447Z,45.59
2022-12-08T08:45:02.501Z,45.40
2022-12-08T08:47:31.488Z,45.87
2022-12-08T08:50:00.804Z,46.32
2022-12-08T08:52:29.719Z,47.14
2022-12-08T08:54:59.022Z,48.01
2022-12-08T08:57:28.270Z,47.85
2022-12-08T08:59:57.274Z,47.87
2022-12-08T09:02:26.444Z,48.37
2022-12-08T09:04:55.702Z,48.43
2022-12-08T09:07:24.929Z,48.39
2022-12-08T09:09:58.446Z,48.07
2022-12-08T09:12:30.899Z,48.75
2022-12-08T09:15:00.448Z,48.96
2022-12-08T09:17:29.240Z,49.45
2022-12-08T09:19:58.482Z,49.49
2022-12-08T09:22:27.355Z,49.01
2022-12-08T09:24:56.537Z,48.71
2022-12-08T09:27:25.293Z,47.91
2022-12-08T09:29:55.431Z,48.21
2022-12-08T09:32:25.365Z,47.41
2022-12-08T09:34:55.605Z,46.86
2022-12-08T09:37:24.537Z,47.56
2022-12-08T09:39:53.835Z,46.58
2022-12-08T09:42:46.141Z,47.15
2022-12-08T09:45:18.317Z,46.11
2022-12-08T09:48:05.616Z,45.51
2022-12-08T09:50:40.886Z,44.85
2022-12-08T09:53:21.509Z,43.90
2022-12-08T09:56:22.182Z,42.34
2022-12-08T09:59:02.820Z,42.75
2022-12-08T10:01:35.756Z,42.75
2022-12-08T10:04:05.942Z,43.55
2022-12-08T10:06:54.649Z,42.63
2022-12-08T10:09:43.067Z,43.28
2022-12-08T10:12:34.301Z,43.40
2022-12-08T10:15:40.604Z,43.21
2022-12-08T10:18:32.002Z,44.44
2022-12-08T10:21:23.735Z,45.00
2022-12-08T10:24:00.320Z,44.38
2022-12-08T10:26:33.721Z,44.68
2022-12-08T10:29:08.093Z,44.61
2022-12-08T10:31:37.460Z,44.63
2022-12-08T10:34:25.201Z,44.64
2022-12-08T10:37:02.046Z,44.62
2022-12-08T10:39:38.826Z,44.84
2022-12-08T10:42:10.336Z,43.56
2022-12-08T10:44:53.920Z,44.97
2022-12-08T10:47:25.097Z,43.39
2022-12-08T10:50:29.155Z,43.29
2022-12-08T10:53:08.977Z,43.67
2022-12-08T10:56:12.027Z,45.65
2022-12-08T10:58:48.905Z,48.06
2022-12-08T11:01:31.620Z,48.51
2022-12-08T11:04:01.630Z,50.17
2022-12-08T11:06:30.441Z,51.28
2022-12-08T11:09:23.736Z,51.55
2022-12-08T11:12:01.419Z,51.13
2022-12-08T11:14:43.765Z,51.13
2022-12-08T11:17:19.955Z,50.96
2022-12-08T11:20:01.870Z,50.77
2022-12-08T11:22:33.670Z,51.31
2022-12-08T11:25:13.219Z,51.40
2022-12-08T11:27:45.640Z,52.07
2022-12-08T11:30:25.913Z,51.84
2022-12-08T11:33:16.012Z,52.87
2022-12-08T11:35:49.414Z,54.04
2022-12-08T11:38:23.269Z,54.14
2022-12-08T11:41:12.285Z,54.25
2022-12-08T11:44:07.036Z,54.03
2022-12-08T11:47:03.160Z,54.50
2022-12-08T11:49:38.872Z,54.88
2022-12-08T11:52:33.357Z,55.02
2022-12-08T11:55:38.992Z,56.54
2022-12-08T11:58:24.055Z,57.80
2022-12-08T12:00:53.224Z,58.31
2022-12-08T12:03:39.706Z,58.99
2022-12-08T12:06:46.515Z,59.10
2022-12-08T12:09:18.217Z,59.69
2022-12-08T12:12:14.607Z,59.53
2022-12-08T12:15:19.247Z,59.45
2022-12-08T12:18:09.724Z,60.10
2022-12-08T12:20:59.643Z,60.16
2022-12-08T12:23:48.587Z,60.92
2022-12-08T12:26:27.364Z,62.25
2022-12-08T12:29:01.884Z,62.92
2022-12-08T12:31:44.277Z,62.77
2022-12-08T12:34:25.102Z,62.29
2022-12-08T12:37:05.074Z,62.75
2022-12-08T12:39:47.288Z,62.70
2022-12-08T12:42:39.361Z,62.40
2022-12-08T12:45:17.522Z,62.97
2022-12-08T12:48:01.441Z,62.83
2022-12-08T12:50:34.273Z,64.20
2022-12-08T12:53:27.858Z,64.71
2022-12-08T12:55:58.332Z,64.74
2022-12-08T12:58:33.738Z,64.33
2022-12-08T13:01:34.713Z,64.95
2022-12-08T13:04:10.842Z,65.70
2022-12-08T13:06:44.561Z,65.46
2022-12-08T13:09:34.099Z,65.81
2022-12-08T13:12:12.545Z,66.57
2022-12-08T13:14:51.964Z,66.80
2022-12-08T13:17:45.698Z,65.55
2022-12-08T13:20:25.269Z,66.31
2022-12-08T13:23:27.869Z,65.97
2022-12-08T13:26:19.167Z,65.40
2022-12-08T13:29:04.604Z,65.97
2022-12-08T13:32:03.273Z,64.63
2022-12-08T13:34:47.362Z,65.35
2022-12-08T13:37:22.626Z,64.83
2022-12-08T13:39:58.068Z,65.07
2022-12-08T13:42:44.011Z,63.98
2022-12-08T13:45:36.209Z,63.50
2022-12-08T13:48:41.627Z,63.52
2022-12-08T13:53:22.329Z,63.28
2022-12-08T13:57:27.199Z,63.14
2022-12-08T14:00:01.550Z,62.83
2022-12-08T14:02:48.469Z,63.70
2022-12-08T14:05:34.865Z,62.57
2022-12-08T14:08:57.906Z,62.18
2022-12-08T14:11:40.430Z,61.92
2022-12-08T14:14:32.607Z,62.35
2022-12-08T14:17:13.766Z,62.38
2022-12-08T14:19:53.526Z,63.04
2022-12-08T14:22:22.855Z,62.99
2022-12-08T14:24:54.603Z,63.12
2022-12-08T14:27:27.133Z,62.83
2022-12-08T14:30:02.931Z,63.85
2022-12-08T14:32:54.033Z,63.65
2022-12-08T14:35:31.635Z,64.11
2022-12-08T14:38:04.086Z,64.70
2022-12-08T14:40:38.286Z,64.98
2022-12-08T14:43:16.749Z,64.23
2022-12-08T14:45:45.881Z,65.64
2022-12-08T14:48:26.970Z,66.44
2022-12-08T14:51:05.027Z,66.93
2022-12-08T14:53:47.688Z,66.50
2022-12-08T14:56:25.983Z,66.99
2022-12-08T14:59:29.237Z,66.39
2022-12-08T15:02:10.437Z,66.84
2022-12-08T15:04:42.681Z,67.66
2022-12-08T15:07:19.055Z,67.91
2022-12-08T15:09:51.335Z,68.55
2022-12-08T15:12:27.142Z,67.84
2022-12-08T15:15:03.313Z,68.56
2022-12-08T15:17:45.316Z,68.80
2022-12-08T15:20:42.525Z,68.84
2022-12-08T15:23:27.505Z,69.05
2022-12-08T15:25:58.417Z,69.63
2022-12-08T15:28:32.242Z,69.64
2022-12-08T15:31:02.174Z,70.23
2022-12-08T15:33:31.473Z,69.61
2022-12-08T15:36:00.674Z,69.81
2022-12-08T15:38:30.924Z,70.23
2022-12-08T15:41:00.533Z,70.27
2022-12-08T15:43:32.281Z,70.35
2022-12-08T15:46:01.575Z,70.50
2022-12-08T15:48:32.179Z,71.05
2022-12-08T15:51:01.242Z,71.04
2022-12-08T15:53:30.813Z,70.97
2022-12-08T15:58:59.433Z,71.49
2022-12-08T16:01:29.922Z,71.64
2022-12-08T16:04:36.822Z,71.41
2022-12-08T16:09:45.180Z,71.60
2022-12-08T16:13:27.259Z,71.68
2022-12-08T16:18:27.472Z,71.41
2022-12-08T16:21:31.622Z,71.16
2022-12-08T16:23:46.751Z,71.47
2022-12-08T16:26:44.125Z,71.20
2022-12-08T16:29:08.359Z,71.43
2022-12-08T16:31:38.117Z,71.30
2022-12-08T16:34:07.754Z,71.49
2022-12-08T16:36:36.821Z,71.63
2022-12-08T16:39:06.601Z,71.65
2022-12-08T16:41:55.169Z,72.00
2022-12-08T16:44:24.540Z,71.83
2022-12-08T16:46:53.601Z,72.41
2022-12-08T16:49:22.985Z,72.22
2022-12-08T16:51:51.998Z,72.24
2022-12-08T16:54:21.623Z,72.09
2022-12-08T16:56:50.728Z,72.70
2022-12-08T16:59:20.139Z,72.37
2022-12-08T17:01:49.472Z,72.77
2022-12-08T17:04:33.698Z,72.76
2022-12-08T17:07:03.902Z,74.28
2022-12-08T17:09:33.719Z,73.75
2022-12-08T17:12:04.301Z,73.58
2022-12-08T17:14:36.639Z,73.82
2022-12-08T17:17:06.347Z,74.47
2022-12-08T17:19:35.683Z,74.56
2022-12-08T17:22:05.723Z,75.50
2022-12-08T17:24:35.898Z,75.50
2022-12-08T17:27:05.621Z,75.08
2022-12-08T17:29:36.001Z,75.41
2022-12-08T17:32:04.994Z,75.86
2022-12-08T17:34:34.559Z,75.73
2022-12-08T17:37:03.456Z,76.08
2022-12-08T17:39:33.188Z,75.92
2022-12-08T17:42:02.556Z,76.24
2022-12-08T17:44:33.111Z,76.80
2022-12-08T17:47:02.852Z,77.05
2022-12-08T17:49:36.733Z,77.42
2022-12-08T17:52:07.921Z,77.36
2022-12-08T17:54:37.760Z,77.37
2022-12-08T17:57:07.070Z,77.95
2022-12-08T17:59:36.448Z,77.84
2022-12-08T18:02:05.900Z,78.01
2022-12-08T18:04:34.970Z,77.88
2022-12-08T18:07:04.964Z,78.17
2022-12-08T18:09:35.113Z,78.36
2022-12-08T18:12:04.410Z,78.16
2022-12-08T18:14:33.587Z,78.41
2022-12-08T18:17:02.901Z,78.62
2022-12-08T18:19:32.207Z,78.45
2022-12-08T18:22:01.520Z,78.17
2022-12-08T18:24:30.571Z,78.70
2022-12-08T18:27:00.039Z,78.79
2022-12-08T18:29:29.083Z,78.97
2022-12-08T18:31:58.385Z,78.90
2022-12-08T18:34:27.491Z,79.14
2022-12-08T18:36:56.434Z,79.18
2022-12-08T18:39:30.440Z,79.02
2022-12-08T18:42:00.843Z,79.43
2022-12-08T18:44:31.508Z,79.51
2022-12-08T18:47:00.510Z,79.55
2022-12-08T18:49:29.397Z,80.06
2022-12-08T18:51:58.691Z,80.03
2022-12-08T18:54:57.754Z,80.45
2022-12-08T18:57:18.376Z,80.59
2022-12-08T18:59:47.726Z,80.81
2022-12-08T19:02:16.828Z,81.07
2022-12-08T19:04:46.694Z,80.82
2022-12-08T19:07:19.637Z,80.83
2022-12-08T19:09:48.857Z,81.05
2022-12-08T19:12:17.986Z,81.05
2022-12-08T19:14:47.161Z,81.49
2022-12-08T19:17:16.259Z,81.31
2022-12-08T19:19:45.328Z,81.45
2022-12-08T19:22:15.171Z,82.00
2022-12-08T19:24:44.440Z,81.51
2022-12-08T19:27:13.487Z,81.66
2022-12-08T19:29:42.611Z,81.70
2022-12-08T19:32:11.638Z,81.93
2022-12-08T19:34:40.939Z,82.11
2022-12-08T19:37:13.434Z,81.63
2022-12-08T19:40:01.058Z,81.54
2022-12-08T19:42:48.642Z,81.88
2022-12-08T19:45:22.709Z,82.05
2022-12-08T19:47:51.839Z,82.19
2022-12-08T19:50:40.946Z,82.41
2022-12-08T19:53:16.276Z,81.92
2022-12-08T19:55:46.243Z,82.70
2022-12-08T19:58:15.224Z,82.64
2022-12-08T20:00:45.191Z,82.52
2022-12-08T20:03:19.768Z,83.00
2022-12-08T20:05:51.383Z,83.12
2022-12-08T20:08:20.810Z,82.69
2022-12-08T20:10:51.701Z,83.26
2022-12-08T20:13:39.071Z,83.06
2022-12-08T20:16:09.150Z,83.73
2022-12-08T20:18:43.406Z,83.90
2022-12-08T20:21:13.463Z,83.46
2022-12-08T20:23:42.738Z,83.13
2022-12-08T20:26:14.484Z,83.22
2022-12-08T20:28:43.419Z,82.96
2022-12-08T20:31:24.520Z,82.52
2022-12-08T20:33:54.290Z,83.78
2022-12-08T20:36:24.022Z,83.37
2022-12-08T20:38:55.308Z,83.54
2022-12-08T20:41:24.805Z,83.51
2022-12-08T20:43:54.512Z,83.84
2022-12-08T20:46:23.779Z,83.94
2022-12-08T20:48:52.812Z,84.42
2022-12-08T20:51:23.759Z,83.89
2022-12-08T20:53:56.089Z,83.58
2022-12-08T20:56:26.516Z,84.08
2022-12-08T20:58:57.079Z,84.07
2022-12-08T21:01:27.194Z,83.66
2022-12-08T21:03:56.585Z,83.66
2022-12-08T21:06:30.231Z,84.02
2022-12-08T21:08:59.298Z,84.21
2022-12-08T21:11:28.668Z,83.74
2022-12-08T21:13:58.537Z,83.97
2022-12-08T21:16:27.474Z,83.97
2022-12-08T21:18:56.604Z,84.17
2022-12-08T21:21:26.545Z,84.50
2022-12-08T21:23:55.630Z,84.53
2022-12-08T21:26:28.722Z,84.51
2022-12-08T21:28:59.957Z,84.68
2022-12-08T21:31:32.843Z,84.71
2022-12-08T21:34:03.842Z,84.77
2022-12-08T21:36:33.096Z,84.60
2022-12-08T21:39:03.699Z,85.79
2022-12-08T21:41:51.327Z,85.37
2022-12-08T21:44:20.550Z,85.61
2022-12-08T21:46:49.605Z,86.26
2022-12-08T21:49:19.219Z,85.93
2022-12-08T21:51:48.154Z,85.78
2022-12-08T21:54:19.180Z,85.78
2022-12-08T21:56:50.781Z,85.92
2022-12-08T21:59:21.679Z,86.40
2022-12-08T22:01:51.170Z,86.30
2022-12-08T22:04:22.585Z,86.57
2022-12-08T22:06:52.735Z,86.19
2022-12-08T22:09:21.648Z,86.81
2022-12-08T22:11:50.825Z,87.23
2022-12-08T22:14:22.862Z,87.44
2022-12-08T22:16:52.042Z,86.92
2022-12-08T22:19:20.907Z,87.42
2022-12-08T22:21:50.277Z,87.48
2022-12-08T22:24:19.153Z,87.74
2022-12-08T22:26:48.374Z,87.86
2022-12-08T22:29:17.950Z,87.82
2022-12-08T22:31:47.188Z,87.64
2022-12-08T22:34:16.352Z,88.05
2022-12-08T22:36:45.549Z,87.79
2022-12-08T22:39:15.064Z,87.76
2022-12-08T22:41:44.480Z,87.83
2022-12-08T22:44:16.344Z,88.25
2022-12-08T22:46:46.616Z,88.32
2022-12-08T22:49:16.076Z,88.48
2022-12-08T22:51:45.424Z,88.42
2022-12-08T22:54:14.479Z,88.17
2022-12-08T22:56:43.951Z,88.41
2022-12-08T22:59:12.986Z,88.99
2022-12-08T23:01:41.972Z,88.88
2022-12-08T23:04:17.381Z,88.92
2022-12-08T23:06:47.321Z,88.94
2022-12-08T23:09:16.550Z,88.66
2022-12-08T23:11:45.896Z,88.76
2022-12-08T23:14:15.186Z,88.95
2022-12-08T23:16:44.329Z,89.30
2022-12-08T23:19:13.532Z,89.14
2022-12-08T23:21:42.626Z,89.26
2022-12-08T23:24:11.773Z,89.33
2022-12-08T23:26:41.199Z,89.82
2022-12-08T23:29:10.795Z,89.89
2022-12-08T23:31:40.252Z,90.05
2022-12-08T23:34:11.205Z,89.96
2022-12-08T23:36:40.408Z,89.81
2022-12-08T23:39:09.544Z,89.92
2022-12-08T23:41:39.184Z,89.70
2022-12-08T23:44:10.286Z,90.40
2022-12-08T23:46:39.352Z,90.26
2022-12-08T23:49:08.558Z,89.78
2022-12-08T23:51:37.844Z,90.08
2022-12-08T23:54:07.963Z,90.27
2022-12-08T23:56:36.898Z,90.57
2022-12-08T23:59:06.930Z,90.11
